EZY61CD EGCC-LFMN
Flight info
| Callsign | EZY61CD |
|---|---|
| Flight time | 1h 59m |
| Altitude | 35000 |
| Route | SANBA N859 HON UL612 MID/N0442F390 UL612 VEULE DCT KOTAP UM728 KETEX DCT KOTIS DCT KUKOR DCT UTUVA DCT LERGA DCT LIQID DCT LATAM DCT TUNUR DCT NISAR |
| Aircraft | A20N/M-SDE2E3FGHIJ1RWXYZ/LB1 |
Departure
| Time | 2026-05-07 12:46 |
|---|---|
| Airport | Manchester Airport (EGCC) |
Arrival
| Time | 2026-05-07 14:46 |
|---|---|
| Airport | Nice-Côte d'Azur Airport (LFMN) |
| Time | Latitude | Longitude | Altitude | Speed | Heading |
|---|---|---|---|---|---|
| 2026-05-07 11:58 | 53.36668 | -2.28129 | 261 ft | 0 kts | 45° |
| 2026-05-07 12:29 | 53.36665 | -2.28134 | 261 ft | 2 kts | 45° |
| 2026-05-07 12:29 | 53.36655 | -2.28150 | 261 ft | 0 kts | 45° |
| 2026-05-07 12:29 | 53.36654 | -2.28152 | 261 ft | 1 kts | 45° |
| 2026-05-07 12:30 | 53.36644 | -2.28169 | 261 ft | 2 kts | 45° |
| 2026-05-07 12:30 | 53.36633 | -2.28186 | 261 ft | 2 kts | 46° |
| 2026-05-07 12:30 | 53.36627 | -2.28209 | 261 ft | 2 kts | 86° |
| 2026-05-07 12:30 | 53.36629 | -2.28234 | 261 ft | 2 kts | 118° |
| 2026-05-07 12:31 | 53.36634 | -2.28246 | 261 ft | 1 kts | 137° |
| 2026-05-07 12:31 | 53.36638 | -2.28252 | 261 ft | 0 kts | 135° |
| 2026-05-07 12:35 | 53.36635 | -2.28247 | 261 ft | 1 kts | 135° |
| 2026-05-07 12:36 | 53.36616 | -2.28213 | 261 ft | 5 kts | 135° |
| 2026-05-07 12:36 | 53.36584 | -2.28160 | 261 ft | 7 kts | 135° |
| 2026-05-07 12:36 | 53.36546 | -2.28096 | 261 ft | 8 kts | 135° |
| 2026-05-07 12:36 | 53.36539 | -2.28085 | 261 ft | 0 kts | 135° |
| 2026-05-07 12:37 | 53.36538 | -2.28084 | 261 ft | 0 kts | 135° |
| 2026-05-07 12:37 | 53.36530 | -2.28070 | 261 ft | 3 kts | 133° |
| 2026-05-07 12:38 | 53.36497 | -2.28018 | 261 ft | 8 kts | 146° |
| 2026-05-07 12:38 | 53.36446 | -2.27956 | 261 ft | 9 kts | 136° |
| 2026-05-07 12:38 | 53.36385 | -2.27949 | 261 ft | 10 kts | 216° |
| 2026-05-07 12:38 | 53.36330 | -2.28033 | 261 ft | 11 kts | 218° |
| 2026-05-07 12:39 | 53.36253 | -2.28079 | 261 ft | 12 kts | 194° |
| 2026-05-07 12:39 | 53.36177 | -2.28036 | 261 ft | 11 kts | 135° |
| 2026-05-07 12:39 | 53.36142 | -2.27976 | 261 ft | 5 kts | 134° |
| 2026-05-07 12:39 | 53.36117 | -2.27919 | 261 ft | 6 kts | 103° |
| 2026-05-07 12:40 | 53.36103 | -2.27835 | 261 ft | 9 kts | 105° |
| 2026-05-07 12:40 | 53.36083 | -2.27708 | 261 ft | 12 kts | 105° |
| 2026-05-07 12:40 | 53.36023 | -2.27623 | 261 ft | 13 kts | 182° |
| 2026-05-07 12:40 | 53.35930 | -2.27639 | 261 ft | 14 kts | 186° |
| 2026-05-07 12:41 | 53.35828 | -2.27657 | 261 ft | 15 kts | 186° |
| 2026-05-07 12:41 | 53.35726 | -2.27639 | 261 ft | 14 kts | 159° |
| 2026-05-07 12:41 | 53.35640 | -2.27551 | 261 ft | 14 kts | 140° |
| 2026-05-07 12:41 | 53.35642 | -2.27406 | 261 ft | 14 kts | 51° |
| 2026-05-07 12:42 | 53.35706 | -2.27274 | 261 ft | 14 kts | 51° |
| 2026-05-07 12:42 | 53.35773 | -2.27139 | 261 ft | 15 kts | 51° |
| 2026-05-07 12:42 | 53.35836 | -2.26992 | 261 ft | 16 kts | 63° |
| 2026-05-07 12:42 | 53.35900 | -2.26837 | 261 ft | 16 kts | 58° |
| 2026-05-07 12:43 | 53.35966 | -2.26683 | 261 ft | 16 kts | 52° |
| 2026-05-07 12:43 | 53.36042 | -2.26526 | 261 ft | 18 kts | 51° |
| 2026-05-07 12:43 | 53.36124 | -2.26358 | 261 ft | 18 kts | 53° |
| 2026-05-07 12:43 | 53.36207 | -2.26224 | 261 ft | 15 kts | 43° |
| 2026-05-07 12:44 | 53.36266 | -2.26093 | 261 ft | 12 kts | 70° |
| 2026-05-07 12:44 | 53.36270 | -2.25972 | 261 ft | 9 kts | 79° |
| 2026-05-07 12:44 | 53.36291 | -2.25865 | 261 ft | 9 kts | 89° |
| 2026-05-07 12:44 | 53.36255 | -2.25764 | 261 ft | 10 kts | 142° |
| 2026-05-07 12:45 | 53.36202 | -2.25783 | 261 ft | 0 kts | 231° |
| 2026-05-07 12:45 | 53.36190 | -2.25807 | 261 ft | 18 kts | 230° |
| 2026-05-07 12:46 | 53.35945 | -2.26314 | 261 ft | 92 kts | 230° |
| 2026-05-07 12:46 | 53.35405 | -2.27432 | 262 ft | 152 kts | 229° |
| 2026-05-07 12:46 | 53.34695 | -2.28881 | 653 ft | 166 kts | 225° |
| 2026-05-07 12:46 | 53.33877 | -2.30253 | 1361 ft | 167 kts | 222° |
| 2026-05-07 12:47 | 53.33073 | -2.31561 | 2120 ft | 165 kts | 222° |
| 2026-05-07 12:47 | 53.32252 | -2.32990 | 2550 ft | 179 kts | 226° |
| 2026-05-07 12:47 | 53.31700 | -2.34941 | 2893 ft | 202 kts | 265° |
| 2026-05-07 12:47 | 53.31941 | -2.37378 | 3254 ft | 224 kts | 281° |
| 2026-05-07 12:48 | 53.32238 | -2.40025 | 3689 ft | 241 kts | 269° |
| 2026-05-07 12:48 | 53.31789 | -2.42716 | 4185 ft | 251 kts | 233° |
| 2026-05-07 12:48 | 53.30464 | -2.44589 | 4707 ft | 254 kts | 202° |
| 2026-05-07 12:48 | 53.28747 | -2.45077 | 4954 ft | 256 kts | 180° |
| 2026-05-07 12:49 | 53.26989 | -2.44653 | 4953 ft | 257 kts | 165° |
| 2026-05-07 12:49 | 53.25334 | -2.43493 | 4964 ft | 258 kts | 154° |
| 2026-05-07 12:49 | 53.23743 | -2.42081 | 4965 ft | 258 kts | 153° |
| 2026-05-07 12:49 | 53.22184 | -2.40674 | 4967 ft | 258 kts | 153° |
| 2026-05-07 12:50 | 53.20600 | -2.39256 | 4963 ft | 257 kts | 154° |
| 2026-05-07 12:50 | 53.19023 | -2.37860 | 4962 ft | 257 kts | 154° |
| 2026-05-07 12:50 | 53.17431 | -2.36459 | 4965 ft | 257 kts | 154° |
| 2026-05-07 12:50 | 53.15850 | -2.35073 | 4962 ft | 258 kts | 154° |
| 2026-05-07 12:51 | 53.14277 | -2.33696 | 4962 ft | 258 kts | 154° |
| 2026-05-07 12:51 | 53.12678 | -2.32298 | 5058 ft | 263 kts | 154° |
| 2026-05-07 12:51 | 53.11042 | -2.30869 | 5793 ft | 267 kts | 154° |
| 2026-05-07 12:51 | 53.09420 | -2.29450 | 6774 ft | 266 kts | 154° |
| 2026-05-07 12:52 | 53.07784 | -2.28023 | 7627 ft | 269 kts | 154° |
| 2026-05-07 12:52 | 53.06126 | -2.26582 | 8441 ft | 272 kts | 154° |
| 2026-05-07 12:52 | 53.04456 | -2.25129 | 9225 ft | 276 kts | 154° |
| 2026-05-07 12:52 | 53.02757 | -2.23653 | 10005 ft | 280 kts | 154° |
| 2026-05-07 12:53 | 53.01037 | -2.22161 | 10658 ft | 288 kts | 154° |
| 2026-05-07 12:53 | 52.99185 | -2.20557 | 11054 ft | 305 kts | 154° |
| 2026-05-07 12:53 | 52.97276 | -2.18907 | 11576 ft | 317 kts | 154° |
| 2026-05-07 12:53 | 52.95333 | -2.17225 | 12315 ft | 320 kts | 154° |
| 2026-05-07 12:54 | 52.93367 | -2.15523 | 13066 ft | 323 kts | 154° |
| 2026-05-07 12:54 | 52.91376 | -2.13802 | 13775 ft | 327 kts | 154° |
| 2026-05-07 12:54 | 52.89339 | -2.12045 | 14464 ft | 331 kts | 154° |
| 2026-05-07 12:54 | 52.87342 | -2.10332 | 15129 ft | 334 kts | 154° |
| 2026-05-07 12:55 | 52.85293 | -2.08578 | 15791 ft | 338 kts | 154° |
| 2026-05-07 12:55 | 52.83192 | -2.06777 | 16457 ft | 341 kts | 154° |
| 2026-05-07 12:55 | 52.81423 | -2.05261 | 16995 ft | 344 kts | 154° |
| 2026-05-07 12:55 | 52.79463 | -2.03579 | 17561 ft | 348 kts | 154° |
| 2026-05-07 12:56 | 52.77204 | -2.01641 | 18185 ft | 352 kts | 154° |
| 2026-05-07 12:56 | 52.75010 | -1.99761 | 18773 ft | 356 kts | 154° |
| 2026-05-07 12:56 | 52.72830 | -1.97894 | 19365 ft | 359 kts | 154° |
| 2026-05-07 12:56 | 52.70603 | -1.95991 | 19981 ft | 362 kts | 154° |
| 2026-05-07 12:57 | 52.68353 | -1.94070 | 20587 ft | 364 kts | 154° |
| 2026-05-07 12:57 | 52.66105 | -1.92152 | 21179 ft | 366 kts | 154° |
| 2026-05-07 12:57 | 52.63863 | -1.90242 | 21736 ft | 369 kts | 154° |
| 2026-05-07 12:57 | 52.61578 | -1.88296 | 22278 ft | 372 kts | 154° |
| 2026-05-07 12:58 | 52.59277 | -1.86339 | 22802 ft | 375 kts | 153° |
| 2026-05-07 12:58 | 52.56958 | -1.84370 | 23326 ft | 377 kts | 153° |
| 2026-05-07 12:58 | 52.54638 | -1.82401 | 23837 ft | 380 kts | 153° |
| 2026-05-07 12:58 | 52.52254 | -1.80380 | 24335 ft | 383 kts | 153° |
| 2026-05-07 12:59 | 52.49912 | -1.78398 | 24826 ft | 386 kts | 153° |
| 2026-05-07 12:59 | 52.47518 | -1.76374 | 25319 ft | 388 kts | 153° |
| 2026-05-07 12:59 | 52.45113 | -1.74341 | 25781 ft | 391 kts | 153° |
| 2026-05-07 12:59 | 52.42698 | -1.72303 | 26226 ft | 393 kts | 153° |
| 2026-05-07 13:00 | 52.40276 | -1.70262 | 26646 ft | 396 kts | 153° |
| 2026-05-07 13:00 | 52.37824 | -1.68200 | 27056 ft | 398 kts | 153° |
| 2026-05-07 13:00 | 52.35346 | -1.66121 | 27467 ft | 400 kts | 153° |
| 2026-05-07 13:00 | 52.32864 | -1.64073 | 27856 ft | 403 kts | 153° |
| 2026-05-07 13:01 | 52.30384 | -1.62042 | 28233 ft | 405 kts | 153° |
| 2026-05-07 13:01 | 52.27871 | -1.59986 | 28602 ft | 407 kts | 153° |
| 2026-05-07 13:01 | 52.25330 | -1.57907 | 28957 ft | 410 kts | 153° |
| 2026-05-07 13:01 | 52.22772 | -1.55814 | 29313 ft | 412 kts | 153° |
| 2026-05-07 13:02 | 52.20205 | -1.53715 | 29649 ft | 414 kts | 153° |
| 2026-05-07 13:02 | 52.17640 | -1.51619 | 29950 ft | 416 kts | 152° |
| 2026-05-07 13:02 | 52.15037 | -1.49493 | 30251 ft | 419 kts | 152° |
| 2026-05-07 13:02 | 52.12431 | -1.47367 | 30637 ft | 419 kts | 152° |
| 2026-05-07 13:03 | 52.09827 | -1.45249 | 31083 ft | 417 kts | 152° |
| 2026-05-07 13:03 | 52.07275 | -1.43175 | 31498 ft | 416 kts | 152° |
| 2026-05-07 13:03 | 52.04694 | -1.41079 | 31889 ft | 415 kts | 152° |
| 2026-05-07 13:03 | 52.02124 | -1.38995 | 32246 ft | 414 kts | 152° |
| 2026-05-07 13:04 | 51.99542 | -1.36906 | 32586 ft | 413 kts | 152° |
| 2026-05-07 13:04 | 51.96975 | -1.34831 | 32905 ft | 413 kts | 153° |
| 2026-05-07 13:04 | 51.94374 | -1.32724 | 33219 ft | 413 kts | 153° |
| 2026-05-07 13:04 | 51.91814 | -1.30649 | 33504 ft | 413 kts | 153° |
| 2026-05-07 13:05 | 51.89281 | -1.28602 | 33757 ft | 414 kts | 154° |
| 2026-05-07 13:05 | 51.86689 | -1.26524 | 33994 ft | 415 kts | 154° |
| 2026-05-07 13:05 | 51.84105 | -1.24458 | 34215 ft | 416 kts | 154° |
| 2026-05-07 13:05 | 51.81478 | -1.22356 | 34434 ft | 418 kts | 154° |
| 2026-05-07 13:06 | 51.78919 | -1.20309 | 34639 ft | 418 kts | 154° |
| 2026-05-07 13:06 | 51.76302 | -1.18213 | 34860 ft | 419 kts | 154° |
| 2026-05-07 13:06 | 51.73697 | -1.16130 | 35006 ft | 420 kts | 154° |
| 2026-05-07 13:06 | 51.71086 | -1.14046 | 35031 ft | 421 kts | 154° |
| 2026-05-07 13:07 | 51.65846 | -1.09872 | 35045 ft | 421 kts | 154° |
| 2026-05-07 13:07 | 51.60704 | -1.05320 | 35048 ft | 421 kts | 148° |
| 2026-05-07 13:08 | 51.55865 | -0.99955 | 35047 ft | 422 kts | 145° |
| 2026-05-07 13:08 | 51.51082 | -0.94494 | 35051 ft | 423 kts | 146° |
| 2026-05-07 13:09 | 51.46166 | -0.89353 | 35050 ft | 423 kts | 151° |
| 2026-05-07 13:09 | 51.40908 | -0.85134 | 35050 ft | 423 kts | 158° |
| 2026-05-07 13:10 | 51.35458 | -0.81631 | 35051 ft | 423 kts | 159° |
| 2026-05-07 13:10 | 51.30001 | -0.78139 | 35050 ft | 423 kts | 159° |
| 2026-05-07 13:11 | 51.24522 | -0.74641 | 35053 ft | 424 kts | 160° |
| 2026-05-07 13:11 | 51.19072 | -0.71170 | 35051 ft | 424 kts | 160° |
| 2026-05-07 13:12 | 51.13569 | -0.67681 | 35053 ft | 424 kts | 160° |
| 2026-05-07 13:12 | 51.08155 | -0.64154 | 35052 ft | 422 kts | 157° |
| 2026-05-07 13:13 | 51.02978 | -0.59844 | 35050 ft | 417 kts | 150° |
| 2026-05-07 13:13 | 50.98162 | -0.54813 | 35055 ft | 417 kts | 148° |
| 2026-05-07 13:14 | 50.93366 | -0.49694 | 35056 ft | 417 kts | 148° |
| 2026-05-07 13:14 | 50.88518 | -0.44544 | 35058 ft | 418 kts | 148° |
| 2026-05-07 13:15 | 50.83704 | -0.39463 | 35061 ft | 419 kts | 148° |
| 2026-05-07 13:15 | 50.78854 | -0.34338 | 35059 ft | 420 kts | 149° |
| 2026-05-07 13:16 | 50.74027 | -0.29215 | 35060 ft | 419 kts | 149° |
| 2026-05-07 13:16 | 50.69206 | -0.24134 | 35064 ft | 418 kts | 149° |
| 2026-05-07 13:17 | 50.64367 | -0.19061 | 35062 ft | 419 kts | 149° |
| 2026-05-07 13:17 | 50.59547 | -0.14018 | 35063 ft | 419 kts | 149° |
| 2026-05-07 13:18 | 50.54711 | -0.08968 | 35063 ft | 419 kts | 149° |
| 2026-05-07 13:18 | 50.49858 | -0.03911 | 35053 ft | 419 kts | 149° |
| 2026-05-07 13:19 | 50.45001 | 0.01136 | 35067 ft | 419 kts | 149° |
| 2026-05-07 13:19 | 50.40163 | 0.06147 | 35059 ft | 419 kts | 149° |
| 2026-05-07 13:20 | 50.35313 | 0.11158 | 35064 ft | 420 kts | 149° |
| 2026-05-07 13:20 | 50.30456 | 0.16163 | 35058 ft | 420 kts | 149° |
| 2026-05-07 13:21 | 50.25599 | 0.21165 | 35058 ft | 420 kts | 149° |
| 2026-05-07 13:21 | 50.20741 | 0.26150 | 35055 ft | 419 kts | 149° |
| 2026-05-07 13:22 | 50.15868 | 0.31150 | 35059 ft | 419 kts | 149° |
| 2026-05-07 13:22 | 50.10992 | 0.36156 | 35059 ft | 420 kts | 149° |
| 2026-05-07 13:23 | 50.06130 | 0.41140 | 35058 ft | 420 kts | 149° |
| 2026-05-07 13:23 | 50.01281 | 0.46096 | 35056 ft | 420 kts | 149° |
| 2026-05-07 13:24 | 49.96397 | 0.51076 | 35053 ft | 420 kts | 149° |
| 2026-05-07 13:24 | 49.91532 | 0.56028 | 35053 ft | 420 kts | 149° |
| 2026-05-07 13:25 | 49.86684 | 0.60932 | 35053 ft | 420 kts | 149° |
| 2026-05-07 13:25 | 49.81881 | 0.66132 | 35046 ft | 420 kts | 147° |
| 2026-05-07 13:26 | 49.77138 | 0.71392 | 35039 ft | 421 kts | 147° |
| 2026-05-07 13:26 | 49.72390 | 0.76646 | 35044 ft | 421 kts | 147° |
| 2026-05-07 13:27 | 49.67638 | 0.81885 | 35040 ft | 421 kts | 147° |
| 2026-05-07 13:27 | 49.62864 | 0.87136 | 35040 ft | 421 kts | 147° |
| 2026-05-07 13:28 | 49.58105 | 0.92357 | 35037 ft | 420 kts | 147° |
| 2026-05-07 13:28 | 49.53355 | 0.97555 | 35036 ft | 420 kts | 147° |
| 2026-05-07 13:29 | 49.48612 | 1.02731 | 35037 ft | 421 kts | 147° |
| 2026-05-07 13:29 | 49.43823 | 1.07945 | 35039 ft | 421 kts | 147° |
| 2026-05-07 13:30 | 49.39044 | 1.13134 | 35041 ft | 421 kts | 147° |
| 2026-05-07 13:30 | 49.34292 | 1.18282 | 35041 ft | 421 kts | 147° |
| 2026-05-07 13:31 | 49.29512 | 1.23449 | 35039 ft | 421 kts | 147° |
| 2026-05-07 13:31 | 49.24724 | 1.28611 | 35035 ft | 421 kts | 147° |
| 2026-05-07 13:32 | 49.19934 | 1.33764 | 35033 ft | 421 kts | 147° |
| 2026-05-07 13:32 | 49.15163 | 1.38883 | 35030 ft | 421 kts | 147° |
| 2026-05-07 13:33 | 49.10384 | 1.43997 | 35029 ft | 421 kts | 147° |
| 2026-05-07 13:33 | 49.05589 | 1.49116 | 35026 ft | 422 kts | 147° |
| 2026-05-07 13:34 | 48.98375 | 1.56796 | 35021 ft | 420 kts | 147° |
| 2026-05-07 13:35 | 48.93589 | 1.61876 | 35016 ft | 420 kts | 147° |
| 2026-05-07 13:35 | 48.88809 | 1.66942 | 35016 ft | 420 kts | 147° |
| 2026-05-07 13:36 | 48.84129 | 1.71886 | 35014 ft | 421 kts | 147° |
| 2026-05-07 13:36 | 48.79297 | 1.76977 | 35013 ft | 421 kts | 148° |
| 2026-05-07 13:37 | 48.74472 | 1.82050 | 35015 ft | 421 kts | 148° |
| 2026-05-07 13:37 | 48.69646 | 1.87114 | 35013 ft | 421 kts | 148° |
| 2026-05-07 13:38 | 48.64861 | 1.92121 | 35014 ft | 421 kts | 148° |
| 2026-05-07 13:38 | 48.59984 | 1.97212 | 35018 ft | 421 kts | 148° |
| 2026-05-07 13:39 | 48.55196 | 2.02200 | 35012 ft | 421 kts | 148° |
| 2026-05-07 13:39 | 48.50350 | 2.07237 | 35014 ft | 421 kts | 147° |
| 2026-05-07 13:40 | 48.45559 | 2.12207 | 35008 ft | 421 kts | 148° |
| 2026-05-07 13:40 | 48.40734 | 2.17203 | 35008 ft | 422 kts | 148° |
| 2026-05-07 13:41 | 48.35924 | 2.22168 | 35006 ft | 421 kts | 148° |
| 2026-05-07 13:41 | 48.30933 | 2.26837 | 34997 ft | 419 kts | 154° |
| 2026-05-07 13:42 | 48.25671 | 2.30522 | 35001 ft | 417 kts | 161° |
| 2026-05-07 13:42 | 48.20207 | 2.33202 | 34995 ft | 415 kts | 168° |
| 2026-05-07 13:43 | 48.14625 | 2.35431 | 34998 ft | 416 kts | 167° |
| 2026-05-07 13:43 | 48.09084 | 2.38060 | 34997 ft | 417 kts | 164° |
| 2026-05-07 13:44 | 48.03618 | 2.40774 | 34997 ft | 417 kts | 163° |
| 2026-05-07 13:44 | 47.98111 | 2.43507 | 34998 ft | 417 kts | 164° |
| 2026-05-07 13:45 | 47.92581 | 2.46247 | 34991 ft | 417 kts | 164° |
| 2026-05-07 13:45 | 47.87145 | 2.48931 | 34999 ft | 417 kts | 164° |
| 2026-05-07 13:46 | 47.81786 | 2.51563 | 34992 ft | 417 kts | 164° |
| 2026-05-07 13:46 | 47.76299 | 2.54261 | 34990 ft | 417 kts | 164° |
| 2026-05-07 13:47 | 47.70792 | 2.56963 | 34992 ft | 417 kts | 164° |
| 2026-05-07 13:47 | 47.65297 | 2.59657 | 34985 ft | 417 kts | 164° |
| 2026-05-07 13:48 | 47.59798 | 2.62346 | 34991 ft | 417 kts | 164° |
| 2026-05-07 13:48 | 47.54355 | 2.65004 | 34993 ft | 417 kts | 165° |
| 2026-05-07 13:49 | 47.49162 | 2.67557 | 34989 ft | 416 kts | 165° |
| 2026-05-07 13:49 | 47.43661 | 2.70249 | 34991 ft | 416 kts | 165° |
| 2026-05-07 13:50 | 47.38154 | 2.72923 | 34986 ft | 417 kts | 165° |
| 2026-05-07 13:50 | 47.32662 | 2.75581 | 34986 ft | 417 kts | 165° |
| 2026-05-07 13:51 | 47.27124 | 2.78257 | 34987 ft | 417 kts | 165° |
| 2026-05-07 13:51 | 47.21623 | 2.80905 | 34987 ft | 417 kts | 165° |
| 2026-05-07 13:52 | 47.16130 | 2.83538 | 34992 ft | 417 kts | 166° |
| 2026-05-07 13:52 | 47.10617 | 2.86177 | 34994 ft | 416 kts | 166° |
| 2026-05-07 13:53 | 47.05122 | 2.88805 | 34992 ft | 416 kts | 166° |
| 2026-05-07 13:53 | 46.99609 | 2.91435 | 35002 ft | 416 kts | 166° |
| 2026-05-07 13:54 | 46.94131 | 2.94044 | 34997 ft | 417 kts | 166° |
| 2026-05-07 13:54 | 46.88618 | 2.96663 | 34998 ft | 417 kts | 166° |
| 2026-05-07 13:55 | 46.83223 | 2.99211 | 34991 ft | 417 kts | 166° |
| 2026-05-07 13:55 | 46.77781 | 3.01783 | 34986 ft | 416 kts | 166° |
| 2026-05-07 13:56 | 46.72305 | 3.04368 | 34982 ft | 416 kts | 166° |
| 2026-05-07 13:56 | 46.66791 | 3.06970 | 34979 ft | 416 kts | 166° |
| 2026-05-07 13:57 | 46.61288 | 3.09561 | 34981 ft | 416 kts | 166° |
| 2026-05-07 13:57 | 46.55772 | 3.12149 | 34979 ft | 416 kts | 166° |
| 2026-05-07 13:58 | 46.50334 | 3.14964 | 34979 ft | 419 kts | 163° |
| 2026-05-07 13:58 | 46.44873 | 3.17899 | 34979 ft | 419 kts | 163° |
| 2026-05-07 13:59 | 46.39414 | 3.20833 | 34975 ft | 419 kts | 164° |
| 2026-05-07 13:59 | 46.33933 | 3.23773 | 34979 ft | 419 kts | 164° |
| 2026-05-07 14:00 | 46.28474 | 3.26697 | 34971 ft | 420 kts | 164° |
| 2026-05-07 14:00 | 46.23006 | 3.29621 | 34975 ft | 420 kts | 164° |
| 2026-05-07 14:01 | 46.17523 | 3.32544 | 34982 ft | 419 kts | 164° |
| 2026-05-07 14:01 | 46.12048 | 3.35460 | 34987 ft | 419 kts | 164° |
| 2026-05-07 14:02 | 46.06625 | 3.38341 | 34982 ft | 419 kts | 164° |
| 2026-05-07 14:02 | 46.01161 | 3.41240 | 34979 ft | 419 kts | 164° |
| 2026-05-07 14:03 | 45.95683 | 3.44143 | 34980 ft | 419 kts | 164° |
| 2026-05-07 14:03 | 45.90221 | 3.47029 | 34977 ft | 418 kts | 164° |
| 2026-05-07 14:04 | 45.84706 | 3.49768 | 34973 ft | 416 kts | 168° |
| 2026-05-07 14:04 | 45.79167 | 3.52141 | 34975 ft | 416 kts | 168° |
| 2026-05-07 14:05 | 45.73642 | 3.54514 | 34979 ft | 416 kts | 168° |
| 2026-05-07 14:05 | 45.68129 | 3.56884 | 34981 ft | 415 kts | 167° |
| 2026-05-07 14:06 | 45.62588 | 3.59264 | 34980 ft | 415 kts | 167° |
| 2026-05-07 14:06 | 45.57070 | 3.61628 | 34982 ft | 414 kts | 168° |
| 2026-05-07 14:07 | 45.51545 | 3.63991 | 34982 ft | 414 kts | 168° |
| 2026-05-07 14:07 | 45.46048 | 3.66352 | 34986 ft | 413 kts | 168° |
| 2026-05-07 14:08 | 45.40947 | 3.68549 | 34986 ft | 413 kts | 168° |
| 2026-05-07 14:08 | 45.35732 | 3.70770 | 34986 ft | 412 kts | 168° |
| 2026-05-07 14:09 | 45.30339 | 3.73557 | 34986 ft | 418 kts | 159° |
| 2026-05-07 14:09 | 45.25455 | 3.78113 | 34989 ft | 427 kts | 144° |
| 2026-05-07 14:10 | 45.21424 | 3.84362 | 34994 ft | 435 kts | 129° |
| 2026-05-07 14:10 | 45.18131 | 3.91591 | 34998 ft | 436 kts | 127° |
| 2026-05-07 14:11 | 45.14866 | 3.98858 | 34991 ft | 437 kts | 127° |
| 2026-05-07 14:11 | 45.11581 | 4.06052 | 34995 ft | 436 kts | 127° |
| 2026-05-07 14:12 | 45.08289 | 4.13225 | 34987 ft | 437 kts | 127° |
| 2026-05-07 14:12 | 45.04961 | 4.20426 | 34977 ft | 437 kts | 129° |
| 2026-05-07 14:13 | 45.01277 | 4.27139 | 34982 ft | 433 kts | 136° |
| 2026-05-07 14:13 | 44.97202 | 4.33416 | 34979 ft | 431 kts | 137° |
| 2026-05-07 14:14 | 44.93150 | 4.39619 | 34975 ft | 431 kts | 137° |
| 2026-05-07 14:14 | 44.89151 | 4.45740 | 34981 ft | 431 kts | 137° |
| 2026-05-07 14:15 | 44.85215 | 4.51723 | 34969 ft | 431 kts | 137° |
| 2026-05-07 14:15 | 44.81247 | 4.57762 | 34968 ft | 432 kts | 137° |
| 2026-05-07 14:16 | 44.77159 | 4.63990 | 34963 ft | 432 kts | 137° |
| 2026-05-07 14:16 | 44.73166 | 4.70087 | 34957 ft | 432 kts | 138° |
| 2026-05-07 14:17 | 44.69188 | 4.76149 | 34950 ft | 432 kts | 138° |
| 2026-05-07 14:17 | 44.65168 | 4.82236 | 34948 ft | 433 kts | 138° |
| 2026-05-07 14:18 | 44.61139 | 4.88510 | 34953 ft | 434 kts | 136° |
| 2026-05-07 14:18 | 44.57179 | 4.94895 | 34955 ft | 434 kts | 136° |
| 2026-05-07 14:19 | 44.53107 | 5.01206 | 34957 ft | 432 kts | 141° |
| 2026-05-07 14:19 | 44.48569 | 5.06601 | 34959 ft | 425 kts | 150° |
| 2026-05-07 14:20 | 44.43598 | 5.10863 | 34966 ft | 418 kts | 159° |
| 2026-05-07 14:20 | 44.38337 | 5.14293 | 34965 ft | 416 kts | 161° |
| 2026-05-07 14:21 | 44.33070 | 5.17657 | 34960 ft | 415 kts | 161° |
| 2026-05-07 14:21 | 44.27803 | 5.21026 | 34964 ft | 415 kts | 161° |
| 2026-05-07 14:22 | 44.22526 | 5.24402 | 34907 ft | 413 kts | 161° |
| 2026-05-07 14:22 | 44.19923 | 5.26064 | 34346 ft | 417 kts | 161° |
| 2026-05-07 14:22 | 44.17245 | 5.27766 | 33297 ft | 426 kts | 161° |
| 2026-05-07 14:22 | 44.14545 | 5.29483 | 32440 ft | 430 kts | 161° |
| 2026-05-07 14:23 | 44.11803 | 5.31232 | 31676 ft | 431 kts | 161° |
| 2026-05-07 14:23 | 44.09102 | 5.32955 | 30933 ft | 432 kts | 161° |
| 2026-05-07 14:23 | 44.06327 | 5.34722 | 30144 ft | 433 kts | 161° |
| 2026-05-07 14:23 | 44.03561 | 5.36477 | 29273 ft | 431 kts | 160° |
| 2026-05-07 14:24 | 44.00855 | 5.38192 | 27994 ft | 433 kts | 159° |
| 2026-05-07 14:24 | 43.98260 | 5.40310 | 26678 ft | 438 kts | 147° |
| 2026-05-07 14:24 | 43.96017 | 5.43151 | 25651 ft | 434 kts | 134° |
| 2026-05-07 14:24 | 43.94179 | 5.46365 | 24650 ft | 427 kts | 129° |
| 2026-05-07 14:25 | 43.92433 | 5.49630 | 23605 ft | 419 kts | 129° |
| 2026-05-07 14:25 | 43.90711 | 5.52874 | 22545 ft | 411 kts | 128° |
| 2026-05-07 14:25 | 43.89307 | 5.55508 | 22066 ft | 396 kts | 129° |
| 2026-05-07 14:25 | 43.87675 | 5.58536 | 21644 ft | 387 kts | 129° |
| 2026-05-07 14:26 | 43.86074 | 5.61488 | 21214 ft | 382 kts | 129° |
| 2026-05-07 14:26 | 43.84493 | 5.64402 | 20788 ft | 379 kts | 129° |
| 2026-05-07 14:26 | 43.82942 | 5.67263 | 20383 ft | 377 kts | 129° |
| 2026-05-07 14:26 | 43.81455 | 5.70015 | 19986 ft | 375 kts | 129° |
| 2026-05-07 14:27 | 43.79903 | 5.72881 | 19574 ft | 373 kts | 129° |
| 2026-05-07 14:27 | 43.78357 | 5.75729 | 19164 ft | 370 kts | 129° |
| 2026-05-07 14:27 | 43.76821 | 5.78553 | 18755 ft | 367 kts | 129° |
| 2026-05-07 14:27 | 43.75271 | 5.81398 | 18363 ft | 365 kts | 129° |
| 2026-05-07 14:28 | 43.73763 | 5.84165 | 17974 ft | 362 kts | 129° |
| 2026-05-07 14:28 | 43.72256 | 5.86927 | 17570 ft | 359 kts | 129° |
| 2026-05-07 14:28 | 43.70762 | 5.89662 | 17179 ft | 357 kts | 129° |
| 2026-05-07 14:28 | 43.69275 | 5.92385 | 16774 ft | 354 kts | 128° |
| 2026-05-07 14:29 | 43.67796 | 5.95089 | 16356 ft | 351 kts | 128° |
| 2026-05-07 14:29 | 43.66329 | 5.97770 | 15951 ft | 349 kts | 128° |
| 2026-05-07 14:29 | 43.64890 | 6.00394 | 15552 ft | 346 kts | 128° |
| 2026-05-07 14:29 | 43.63439 | 6.03038 | 15155 ft | 344 kts | 128° |
| 2026-05-07 14:30 | 43.62000 | 6.05655 | 14757 ft | 341 kts | 128° |
| 2026-05-07 14:30 | 43.60593 | 6.08276 | 14351 ft | 339 kts | 125° |
| 2026-05-07 14:30 | 43.59394 | 6.11052 | 13956 ft | 337 kts | 118° |
| 2026-05-07 14:30 | 43.58441 | 6.14009 | 13555 ft | 335 kts | 112° |
| 2026-05-07 14:31 | 43.57612 | 6.17008 | 13187 ft | 333 kts | 111° |
| 2026-05-07 14:31 | 43.56815 | 6.19966 | 12788 ft | 331 kts | 111° |
| 2026-05-07 14:31 | 43.56021 | 6.22903 | 12405 ft | 328 kts | 111° |
| 2026-05-07 14:31 | 43.55219 | 6.25845 | 12032 ft | 326 kts | 111° |
| 2026-05-07 14:32 | 43.54422 | 6.28756 | 11635 ft | 324 kts | 111° |
| 2026-05-07 14:32 | 43.53622 | 6.31661 | 11245 ft | 322 kts | 111° |
| 2026-05-07 14:32 | 43.52840 | 6.34494 | 10868 ft | 320 kts | 111° |
| 2026-05-07 14:32 | 43.52045 | 6.37368 | 10493 ft | 317 kts | 111° |
| 2026-05-07 14:33 | 43.51278 | 6.40138 | 10389 ft | 304 kts | 111° |
| 2026-05-07 14:33 | 43.50461 | 6.42718 | 10316 ft | 289 kts | 120° |
| 2026-05-07 14:33 | 43.49329 | 6.44968 | 10084 ft | 282 kts | 131° |
| 2026-05-07 14:33 | 43.48009 | 6.46929 | 9770 ft | 280 kts | 134° |
| 2026-05-07 14:34 | 43.46652 | 6.48851 | 9448 ft | 278 kts | 135° |
| 2026-05-07 14:34 | 43.45309 | 6.50754 | 9140 ft | 277 kts | 134° |
| 2026-05-07 14:34 | 43.43980 | 6.52647 | 8849 ft | 275 kts | 134° |
| 2026-05-07 14:34 | 43.42643 | 6.54565 | 8537 ft | 273 kts | 134° |
| 2026-05-07 14:35 | 43.41343 | 6.56433 | 8234 ft | 271 kts | 134° |
| 2026-05-07 14:35 | 43.40047 | 6.58300 | 7942 ft | 269 kts | 133° |
| 2026-05-07 14:35 | 43.39044 | 6.60424 | 7667 ft | 259 kts | 105° |
| 2026-05-07 14:35 | 43.38925 | 6.62782 | 7422 ft | 245 kts | 78° |
| 2026-05-07 14:36 | 43.39414 | 6.64961 | 7216 ft | 231 kts | 70° |
| 2026-05-07 14:36 | 43.39938 | 6.66946 | 7004 ft | 226 kts | 70° |
| 2026-05-07 14:36 | 43.40447 | 6.68900 | 6770 ft | 222 kts | 70° |
| 2026-05-07 14:36 | 43.40952 | 6.70880 | 6542 ft | 218 kts | 70° |
| 2026-05-07 14:37 | 43.41441 | 6.72821 | 6295 ft | 215 kts | 71° |
| 2026-05-07 14:37 | 43.42396 | 6.76666 | 5861 ft | 213 kts | 71° |
| 2026-05-07 14:37 | 43.42875 | 6.78610 | 5620 ft | 212 kts | 72° |
| 2026-05-07 14:38 | 43.43346 | 6.80528 | 5394 ft | 212 kts | 72° |
| 2026-05-07 14:38 | 43.43812 | 6.82435 | 5179 ft | 211 kts | 72° |
| 2026-05-07 14:38 | 43.44281 | 6.84353 | 4967 ft | 210 kts | 72° |
| 2026-05-07 14:38 | 43.44740 | 6.86233 | 4751 ft | 209 kts | 72° |
| 2026-05-07 14:39 | 43.45204 | 6.88133 | 4564 ft | 209 kts | 72° |
| 2026-05-07 14:39 | 43.45668 | 6.90039 | 4359 ft | 208 kts | 72° |
| 2026-05-07 14:39 | 43.46126 | 6.91915 | 4176 ft | 208 kts | 72° |
| 2026-05-07 14:39 | 43.46653 | 6.93770 | 4003 ft | 207 kts | 66° |
| 2026-05-07 14:40 | 43.47320 | 6.95518 | 3966 ft | 206 kts | 57° |
| 2026-05-07 14:40 | 43.48166 | 6.97050 | 3951 ft | 200 kts | 48° |
| 2026-05-07 14:40 | 43.49141 | 6.98426 | 3955 ft | 200 kts | 44° |
| 2026-05-07 14:40 | 43.50145 | 6.99746 | 3953 ft | 200 kts | 44° |
| 2026-05-07 14:41 | 43.51144 | 7.01068 | 3770 ft | 198 kts | 45° |
| 2026-05-07 14:41 | 43.52100 | 7.02359 | 3598 ft | 189 kts | 45° |
| 2026-05-07 14:41 | 43.53024 | 7.03624 | 3322 ft | 185 kts | 45° |
| 2026-05-07 14:41 | 43.53920 | 7.04861 | 3055 ft | 179 kts | 46° |
| 2026-05-07 14:42 | 43.54802 | 7.06081 | 2811 ft | 178 kts | 46° |
| 2026-05-07 14:42 | 43.55636 | 7.07235 | 2583 ft | 163 kts | 46° |
| 2026-05-07 14:42 | 43.56407 | 7.08298 | 2368 ft | 149 kts | 46° |
| 2026-05-07 14:42 | 43.57117 | 7.09278 | 2165 ft | 141 kts | 46° |
| 2026-05-07 14:43 | 43.57811 | 7.10240 | 1996 ft | 142 kts | 46° |
| 2026-05-07 14:43 | 43.58504 | 7.11198 | 1832 ft | 142 kts | 46° |
| 2026-05-07 14:43 | 43.59197 | 7.12156 | 1658 ft | 141 kts | 46° |
| 2026-05-07 14:43 | 43.59895 | 7.13119 | 1478 ft | 140 kts | 47° |
| 2026-05-07 14:44 | 43.60582 | 7.14066 | 1296 ft | 140 kts | 47° |
| 2026-05-07 14:44 | 43.61270 | 7.15013 | 1112 ft | 140 kts | 46° |
| 2026-05-07 14:44 | 43.61956 | 7.15960 | 926 ft | 140 kts | 46° |
| 2026-05-07 14:44 | 43.62648 | 7.16911 | 739 ft | 139 kts | 46° |
| 2026-05-07 14:45 | 43.63326 | 7.17845 | 557 ft | 139 kts | 46° |
| 2026-05-07 14:45 | 43.64019 | 7.18787 | 374 ft | 138 kts | 46° |
| 2026-05-07 14:45 | 43.64696 | 7.19729 | 203 ft | 138 kts | 47° |
| 2026-05-07 14:45 | 43.65369 | 7.20661 | 44 ft | 138 kts | 46° |
| 2026-05-07 14:46 | 43.65968 | 7.21489 | 28 ft | 100 kts | 45° |
| 2026-05-07 14:46 | 43.66340 | 7.21995 | 28 ft | 47 kts | 42° |
| 2026-05-07 14:46 | 43.66482 | 7.22119 | 28 ft | 9 kts | 335° |
| 2026-05-07 14:46 | 43.66524 | 7.22071 | 28 ft | 8 kts | 313° |
| 2026-05-07 14:47 | 43.66542 | 7.22045 | 28 ft | 0 kts | 314° |
| 2026-05-07 14:47 | 43.66544 | 7.22042 | 28 ft | 2 kts | 313° |
| 2026-05-07 14:48 | 43.66557 | 7.22019 | 28 ft | 3 kts | 287° |
| 2026-05-07 14:48 | 43.66555 | 7.21975 | 28 ft | 5 kts | 245° |
| 2026-05-07 14:48 | 43.66517 | 7.21919 | 28 ft | 10 kts | 224° |
| 2026-05-07 14:48 | 43.66452 | 7.21833 | 28 ft | 15 kts | 223° |
| 2026-05-07 14:49 | 43.66368 | 7.21715 | 29 ft | 19 kts | 225° |
| 2026-05-07 14:49 | 43.66269 | 7.21577 | 29 ft | 21 kts | 225° |
| 2026-05-07 14:49 | 43.66158 | 7.21430 | 29 ft | 21 kts | 220° |
| 2026-05-07 14:49 | 43.66055 | 7.21284 | 29 ft | 20 kts | 224° |
| 2026-05-07 14:50 | 43.65969 | 7.21164 | 29 ft | 13 kts | 235° |
| 2026-05-07 14:50 | 43.66000 | 7.21063 | 30 ft | 13 kts | 341° |
| 2026-05-07 14:50 | 43.66009 | 7.20964 | 30 ft | 13 kts | 230° |
| 2026-05-07 14:50 | 43.65953 | 7.20885 | 30 ft | 9 kts | 223° |
| 2026-05-07 14:51 | 43.65913 | 7.20835 | 30 ft | 0 kts | 223° |
| 2026-05-07 14:51 | 43.65913 | 7.20834 | 30 ft | 0 kts | 223° |
| 2026-05-07 14:51 | 43.65906 | 7.20826 | 30 ft | 2 kts | 221° |
| 2026-05-07 14:51 | 43.65885 | 7.20801 | 30 ft | 6 kts | 220° |
| 2026-05-07 14:52 | 43.65849 | 7.20754 | 30 ft | 6 kts | 244° |
| 2026-05-07 14:52 | 43.65867 | 7.20703 | 30 ft | 4 kts | 315° |
| 2026-05-07 14:52 | 43.65884 | 7.20680 | 30 ft | 2 kts | 314° |
| 2026-05-07 14:52 | 43.65889 | 7.20674 | 30 ft | 0 kts | 315° |